createdAt,value
2023-02-03T00:00:12.279Z,100283.59
2023-02-03T00:02:41.663Z,100291.22
2023-02-03T00:05:10.748Z,100298.03
2023-02-03T00:07:41.482Z,100293.81
2023-02-03T00:10:11.210Z,100297.38
2023-02-03T00:12:39.548Z,100300.69
2023-02-03T00:15:09.813Z,100298.16
2023-02-03T00:17:39.959Z,100302.22
2023-02-03T00:20:09.180Z,100302.00
2023-02-03T00:22:37.820Z,100314.56
2023-02-03T00:25:07.390Z,100320.47
2023-02-03T00:27:36.147Z,100312.81
2023-02-03T00:30:05.437Z,100322.69
2023-02-03T00:32:34.215Z,100325.22
2023-02-03T00:35:04.251Z,100329.41
2023-02-03T00:37:33.045Z,100333.59
2023-02-03T00:40:03.338Z,100331.06
2023-02-03T00:42:33.496Z,100338.47
2023-02-03T00:45:02.388Z,100337.28
2023-02-03T00:47:31.015Z,100339.69
2023-02-03T00:49:59.804Z,100335.28
2023-02-03T00:52:29.862Z,100347.03
2023-02-03T00:54:58.458Z,100342.72
2023-02-03T00:57:27.370Z,100349.22
2023-02-03T00:59:56.198Z,100353.44
2023-02-03T01:02:25.145Z,100356.09
2023-02-03T01:04:54.644Z,100350.06
2023-02-03T01:07:23.354Z,100348.22
2023-02-03T01:09:53.487Z,100350.66
2023-02-03T01:12:22.528Z,100344.56
2023-02-03T01:14:51.081Z,100335.75
2023-02-03T01:17:19.854Z,100345.09
2023-02-03T01:19:48.564Z,100340.94
2023-02-03T01:22:18.965Z,100344.94
2023-02-03T01:24:47.764Z,100344.16
2023-02-03T01:27:17.882Z,100339.03
2023-02-03T01:29:46.572Z,100342.38
2023-02-03T01:32:15.464Z,100349.84
2023-02-03T01:34:44.522Z,100347.25
2023-02-03T01:37:14.864Z,100353.94
2023-02-03T01:39:43.628Z,100358.97
2023-02-03T01:42:15.497Z,100358.91
2023-02-03T01:44:49.685Z,100368.09
2023-02-03T01:47:29.163Z,100363.78
2023-02-03T01:50:08.120Z,100362.22
2023-02-03T01:52:38.225Z,100354.47
2023-02-03T01:55:11.754Z,100368.09
2023-02-03T01:57:48.663Z,100364.50
2023-02-03T02:00:19.967Z,100355.91
2023-02-03T02:02:50.316Z,100355.19
2023-02-03T02:05:26.854Z,100355.91
2023-02-03T02:07:58.057Z,100350.72
2023-02-03T02:10:27.964Z,100346.34
2023-02-03T02:12:59.078Z,100341.69
2023-02-03T02:15:41.487Z,100352.03
2023-02-03T02:18:29.231Z,100344.13
2023-02-03T02:21:19.914Z,100345.72
2023-02-03T02:24:14.220Z,100349.63
2023-02-03T02:27:07.074Z,100339.25
2023-02-03T02:29:57.673Z,100336.38
2023-02-03T02:32:47.392Z,100336.69
2023-02-03T02:35:28.117Z,100342.25
2023-02-03T02:38:04.641Z,100346.47
2023-02-03T02:40:43.713Z,100341.28
2023-02-03T02:43:20.870Z,100343.69
2023-02-03T02:45:52.627Z,100353.47
2023-02-03T02:48:28.897Z,100349.94
2023-02-03T02:51:00.588Z,100349.31
2023-02-03T02:53:34.556Z,100350.59
2023-02-03T02:56:11.052Z,100352.59
2023-02-03T02:58:45.106Z,100359.75
2023-02-03T03:01:16.515Z,100354.41
2023-02-03T03:03:47.065Z,100354.19
2023-02-03T03:06:21.463Z,100353.94
2023-02-03T03:08:58.182Z,100341.88
2023-02-03T03:11:29.918Z,100348.47
2023-02-03T03:14:00.863Z,100352.41
2023-02-03T03:16:31.094Z,100354.13
2023-02-03T03:19:04.569Z,100340.63
2023-02-03T03:21:38.544Z,100343.00
2023-02-03T03:24:11.506Z,100331.00
2023-02-03T03:26:47.302Z,100332.47
2023-02-03T03:29:22.355Z,100328.88
2023-02-03T03:31:51.597Z,100325.59
2023-02-03T03:34:22.014Z,100333.19
2023-02-03T03:36:59.534Z,100329.97
2023-02-03T03:39:35.629Z,100334.38
2023-02-03T03:42:13.546Z,100325.34
2023-02-03T03:44:54.493Z,100328.06
2023-02-03T03:47:29.368Z,100322.84
2023-02-03T03:50:02.736Z,100328.25
2023-02-03T03:52:36.065Z,100317.25
2023-02-03T03:55:09.855Z,100334.13
2023-02-03T03:57:43.136Z,100340.03
2023-02-03T04:00:16.647Z,100345.03
2023-02-03T04:02:52.692Z,100336.84
2023-02-03T04:05:24.321Z,100343.75
2023-02-03T04:07:53.193Z,100341.25
2023-02-03T04:10:30.957Z,100335.44
2023-02-03T04:12:59.760Z,100322.09
2023-02-03T04:15:29.059Z,100333.16
2023-02-03T04:17:58.296Z,100322.56
2023-02-03T04:20:28.902Z,100315.16
2023-02-03T04:22:58.395Z,100324.25
2023-02-03T04:25:27.530Z,100319.25
2023-02-03T04:27:56.911Z,100319.25
2023-02-03T04:30:26.291Z,100309.28
2023-02-03T04:32:55.541Z,100316.84
2023-02-03T04:35:24.218Z,100318.31
2023-02-03T04:37:54.558Z,100314.06
2023-02-03T04:40:23.201Z,100317.81
2023-02-03T04:42:51.813Z,100307.63
2023-02-03T04:45:20.597Z,100311.44
2023-02-03T04:47:54.433Z,100296.97
2023-02-03T04:50:23.703Z,100296.28
2023-02-03T04:52:53.748Z,100302.16
2023-02-03T04:55:22.473Z,100302.16
2023-02-03T04:57:51.170Z,100300.47
2023-02-03T05:00:20.436Z,100304.19
2023-02-03T05:02:49.157Z,100302.31
2023-02-03T05:05:18.056Z,100298.88
2023-02-03T05:07:46.718Z,100302.25
2023-02-03T05:10:17.425Z,100302.00
2023-02-03T05:12:46.182Z,100305.00
2023-02-03T05:15:14.951Z,100305.00
2023-02-03T05:17:44.095Z,100306.75
2023-02-03T05:20:13.912Z,100306.75
2023-02-03T05:22:43.083Z,100296.53
2023-02-03T05:25:12.189Z,100283.69
2023-02-03T05:27:43.157Z,100293.16
2023-02-03T05:30:13.063Z,100299.69
2023-02-03T05:32:41.846Z,100292.94
2023-02-03T05:35:13.428Z,100292.16
2023-02-03T05:37:42.187Z,100285.88
2023-02-03T05:40:21.378Z,100293.63
2023-02-03T05:42:51.812Z,100292.19
2023-02-03T05:45:20.538Z,100284.19
2023-02-03T05:47:49.267Z,100283.31
2023-02-03T05:50:18.204Z,100273.34
2023-02-03T05:52:47.057Z,100259.09
2023-02-03T05:55:15.744Z,100258.22
2023-02-03T05:57:44.435Z,100257.19
2023-02-03T06:00:16.159Z,100254.47
2023-02-03T06:02:44.840Z,100264.50
2023-02-03T06:05:13.606Z,100261.00
2023-02-03T06:07:42.728Z,100257.19
2023-02-03T06:10:11.897Z,100256.09
2023-02-03T06:12:40.820Z,100265.22
2023-02-03T06:15:10.631Z,100255.16
2023-02-03T06:17:40.828Z,100257.34
2023-02-03T06:20:12.532Z,100264.22
2023-02-03T06:22:41.475Z,100265.31
2023-02-03T06:25:13.187Z,100241.75
2023-02-03T06:27:42.435Z,100244.16
2023-02-03T06:30:12.647Z,100248.47
2023-02-03T06:32:42.840Z,100244.38
2023-02-03T06:35:11.642Z,100237.09
2023-02-03T06:37:40.297Z,100243.97
2023-02-03T06:40:11.415Z,100229.56
2023-02-03T06:42:40.128Z,100230.28
2023-02-03T06:45:09.791Z,100206.00
2023-02-03T06:47:40.622Z,100228.41
2023-02-03T06:50:12.826Z,100225.75
2023-02-03T06:52:41.809Z,100224.38
2023-02-03T06:55:11.267Z,100224.06
2023-02-03T06:57:45.776Z,100219.06
2023-02-03T07:00:18.785Z,100219.22
2023-02-03T07:02:48.360Z,100227.56
2023-02-03T07:05:18.571Z,100227.56
2023-02-03T07:07:47.329Z,100219.22
2023-02-03T07:10:16.066Z,100220.94
2023-02-03T07:12:44.877Z,100227.06
2023-02-03T07:15:14.465Z,100236.44
2023-02-03T07:17:43.017Z,100244.91
2023-02-03T07:20:12.648Z,100232.34
2023-02-03T07:22:44.095Z,100236.88
2023-02-03T07:25:12.824Z,100235.50
2023-02-03T07:27:41.415Z,100230.66
2023-02-03T07:30:11.582Z,100214.09
2023-02-03T07:32:40.290Z,100212.50
2023-02-03T07:35:09.836Z,100210.78
2023-02-03T07:37:38.251Z,100204.31
2023-02-03T07:40:08.957Z,100205.34
2023-02-03T07:42:37.660Z,100207.91
2023-02-03T07:45:06.913Z,100206.91
2023-02-03T07:47:35.587Z,100199.16
2023-02-03T07:50:04.811Z,100200.72
2023-02-03T07:52:33.499Z,100198.38
2023-02-03T07:55:02.505Z,100196.38
2023-02-03T07:57:32.586Z,100200.09
2023-02-03T08:04:17.549Z,100195.59
2023-02-03T08:06:46.340Z,100207.47
2023-02-03T08:09:14.997Z,100199.81
2023-02-03T08:11:43.775Z,100200.47
2023-02-03T08:14:13.934Z,100192.13
2023-02-03T08:16:43.097Z,100190.56
2023-02-03T08:19:12.160Z,100188.69
2023-02-03T08:21:40.832Z,100185.38
2023-02-03T08:24:09.883Z,100181.81
2023-02-03T08:26:38.971Z,100169.25
2023-02-03T08:29:08.816Z,100170.03
2023-02-03T08:31:39.403Z,100170.69
2023-02-03T08:34:08.249Z,100171.47
2023-02-03T08:36:40.213Z,100169.59
2023-02-03T08:39:12.033Z,100159.34
2023-02-03T08:41:42.122Z,100152.94
2023-02-03T08:44:10.807Z,100150.88
2023-02-03T08:46:44.467Z,100137.53
2023-02-03T08:49:13.722Z,100138.59
2023-02-03T08:51:42.696Z,100133.66
2023-02-03T08:54:11.404Z,100125.38
2023-02-03T08:56:40.948Z,100115.63
2023-02-03T08:59:10.046Z,100110.88
2023-02-03T09:01:40.908Z,100116.03
2023-02-03T09:04:11.513Z,100106.13
2023-02-03T09:06:41.508Z,100104.69
2023-02-03T09:09:10.625Z,100116.84
2023-02-03T09:11:39.318Z,100096.44
2023-02-03T09:14:08.316Z,100100.06
2023-02-03T09:16:37.426Z,100091.13
2023-02-03T09:19:06.260Z,100091.09
2023-02-03T09:21:40.403Z,100107.13
2023-02-03T09:24:13.577Z,100090.28
2023-02-03T09:26:42.197Z,100101.03
2023-02-03T09:29:11.185Z,100103.50
2023-02-03T09:31:39.953Z,100091.88
2023-02-03T09:34:08.743Z,100079.38
2023-02-03T09:36:40.850Z,100074.47
2023-02-03T09:39:10.331Z,100066.16
2023-02-03T09:42:03.780Z,100067.66
2023-02-03T09:44:43.556Z,100070.97
2023-02-03T09:47:17.598Z,100050.94
2023-02-03T09:49:52.427Z,100057.03
2023-02-03T09:52:26.562Z,100049.28
2023-02-03T09:55:00.341Z,100042.13
2023-02-03T09:57:31.276Z,100037.69
2023-02-03T10:00:03.918Z,100033.53
2023-02-03T10:02:48.134Z,100040.09
2023-02-03T10:05:23.897Z,100021.38
2023-02-03T10:08:04.829Z,100021.06
2023-02-03T10:10:41.159Z,100014.78
2023-02-03T10:13:24.561Z,100008.28
2023-02-03T10:16:17.725Z,100008.28
2023-02-03T10:18:52.540Z,100000.31
2023-02-03T10:21:31.557Z,100001.09
2023-02-03T10:24:03.416Z,99995.41
2023-02-03T10:26:32.625Z,99995.66
2023-02-03T10:29:09.776Z,99985.16
2023-02-03T10:31:39.485Z,99985.50
2023-02-03T10:34:11.893Z,99985.50
2023-02-03T10:36:53.837Z,99974.00
2023-02-03T10:39:33.718Z,99962.22
2023-02-03T10:42:04.100Z,99973.38
2023-02-03T10:44:38.609Z,99965.91
2023-02-03T10:47:25.939Z,99960.88
2023-02-03T10:49:57.629Z,99942.53
2023-02-03T10:52:30.699Z,99946.94
2023-02-03T10:55:00.911Z,99929.47
2023-02-03T10:57:31.536Z,99923.75
2023-02-03T11:00:22.498Z,99923.31
2023-02-03T11:02:58.954Z,99911.00
2023-02-03T11:05:28.137Z,99910.50
2023-02-03T11:07:58.168Z,99899.09
2023-02-03T11:10:37.226Z,99881.59
2023-02-03T11:13:19.531Z,99874.97
2023-02-03T11:15:57.243Z,99865.91
2023-02-03T11:18:43.162Z,99849.91
2023-02-03T11:21:14.868Z,99849.78
2023-02-03T11:23:51.925Z,99850.41
2023-02-03T11:26:26.000Z,99846.84
2023-02-03T11:28:58.449Z,99837.34
2023-02-03T11:31:29.422Z,99836.44
2023-02-03T11:34:02.146Z,99831.63
2023-02-03T11:36:34.043Z,99828.31
2023-02-03T11:39:24.657Z,99820.78
2023-02-03T11:41:55.142Z,99814.84
2023-02-03T11:44:29.664Z,99803.38
2023-02-03T11:47:03.619Z,99794.31
2023-02-03T11:49:59.770Z,99790.44
2023-02-03T11:52:49.315Z,99782.88
2023-02-03T11:55:44.530Z,99773.41
2023-02-03T11:58:41.262Z,99759.81
2023-02-03T12:01:21.157Z,99751.38
2023-02-03T12:04:16.070Z,99746.22
2023-02-03T12:07:03.439Z,99730.94
2023-02-03T12:09:43.590Z,99721.69
2023-02-03T12:12:35.549Z,99717.53
2023-02-03T12:15:19.204Z,99703.94
2023-02-03T12:18:00.476Z,99697.09
2023-02-03T12:20:41.893Z,99690.25
2023-02-03T12:23:24.374Z,99685.13
2023-02-03T12:26:07.961Z,99668.97
2023-02-03T12:28:51.956Z,99659.66
2023-02-03T12:31:31.897Z,99656.31
2023-02-03T12:34:13.865Z,99653.81
2023-02-03T12:36:46.586Z,99648.09
2023-02-03T12:39:22.743Z,99635.34
2023-02-03T12:42:00.034Z,99630.31
2023-02-03T12:44:34.889Z,99631.28
2023-02-03T12:47:14.894Z,99623.00
2023-02-03T12:49:48.562Z,99619.72
2023-02-03T12:52:25.265Z,99604.69
2023-02-03T12:55:00.845Z,99606.34
2023-02-03T12:57:35.660Z,99591.19
2023-02-03T13:00:31.171Z,99587.66
2023-02-03T13:03:14.431Z,99581.00
2023-02-03T13:05:48.789Z,99572.66
2023-02-03T13:08:25.179Z,99557.59
2023-02-03T13:11:00.450Z,99554.25
2023-02-03T13:13:36.797Z,99549.22
2023-02-03T13:16:10.851Z,99535.94
2023-02-03T13:18:45.899Z,99528.38
2023-02-03T13:21:14.939Z,99527.59
2023-02-03T13:23:47.710Z,99517.53
2023-02-03T13:26:38.778Z,99510.22
2023-02-03T13:29:24.576Z,99511.94
2023-02-03T13:32:10.278Z,99507.88
2023-02-03T13:35:01.611Z,99497.97
2023-02-03T13:37:52.308Z,99488.88
2023-02-03T13:40:33.361Z,99483.19
2023-02-03T13:43:06.351Z,99481.75
2023-02-03T13:45:41.789Z,99472.41
2023-02-03T13:48:17.877Z,99463.16
2023-02-03T13:50:49.667Z,99465.66
2023-02-03T13:53:22.514Z,99446.47
2023-02-03T13:55:57.114Z,99447.25
2023-02-03T13:58:29.311Z,99446.47
2023-02-03T14:01:25.012Z,99434.78
2023-02-03T14:03:54.098Z,99432.19
2023-02-03T14:06:45.952Z,99427.94
2023-02-03T14:09:24.626Z,99426.41
2023-02-03T14:11:53.886Z,99415.53
2023-02-03T14:14:43.387Z,99409.63
2023-02-03T14:17:32.449Z,99392.81
2023-02-03T14:20:01.500Z,99397.94
2023-02-03T14:22:31.812Z,99392.91
2023-02-03T14:25:08.309Z,99375.38
2023-02-03T14:27:37.501Z,99372.88
2023-02-03T14:30:10.072Z,99377.91
2023-02-03T14:32:51.656Z,99367.91
2023-02-03T14:35:23.811Z,99365.38
2023-02-03T14:37:56.170Z,99349.38
2023-02-03T14:40:36.019Z,99350.25
2023-02-03T14:43:25.781Z,99346.88
2023-02-03T14:46:21.995Z,99341.84
2023-02-03T14:49:00.350Z,99345.22
2023-02-03T14:51:53.189Z,99341.91
2023-02-03T14:54:40.169Z,99331.78
2023-02-03T14:57:23.921Z,99331.97
2023-02-03T14:59:59.259Z,99329.50
2023-02-03T15:02:31.488Z,99322.69
2023-02-03T15:05:36.940Z,99308.44
2023-02-03T15:08:06.049Z,99294.03
2023-02-03T15:10:43.919Z,99320.19
2023-02-03T15:13:27.628Z,99309.38
2023-02-03T15:15:59.043Z,99302.81
2023-02-03T15:18:33.406Z,99305.44
2023-02-03T15:21:02.162Z,99299.72
2023-02-03T15:23:32.445Z,99298.09
2023-02-03T15:26:03.372Z,99288.09
2023-02-03T15:28:33.907Z,99295.78
2023-02-03T15:31:08.465Z,99298.41
2023-02-03T15:33:40.264Z,99280.06
2023-02-03T15:36:18.307Z,99271.78
2023-02-03T15:38:53.066Z,99287.78
2023-02-03T15:41:25.004Z,99278.66
2023-02-03T15:44:00.204Z,99273.69
2023-02-03T15:46:33.916Z,99277.25
2023-02-03T15:49:08.882Z,99278.25
2023-02-03T15:51:44.242Z,99278.19
2023-02-03T15:54:19.190Z,99261.44
2023-02-03T15:56:57.142Z,99253.84
2023-02-03T15:59:33.356Z,99253.94
2023-02-03T16:02:03.690Z,99239.69
2023-02-03T16:04:32.651Z,99230.44
2023-02-03T16:07:01.931Z,99202.63
2023-02-03T16:09:34.165Z,99190.66
2023-02-03T16:12:07.434Z,99192.53
2023-02-03T16:14:38.852Z,99195.09
2023-02-03T16:17:07.832Z,99188.41
2023-02-03T16:19:40.659Z,99193.56
2023-02-03T16:22:31.660Z,99197.94
2023-02-03T16:25:15.792Z,99188.84
2023-02-03T16:27:46.840Z,99195.81
2023-02-03T16:30:35.935Z,99188.50
2023-02-03T16:33:23.994Z,99181.94
2023-02-03T16:36:02.795Z,99193.06
2023-02-03T16:38:41.488Z,99168.75
2023-02-03T16:41:28.242Z,99161.34
2023-02-03T16:44:07.006Z,99158.00
2023-02-03T16:46:48.300Z,99162.31
2023-02-03T16:49:26.889Z,99160.78
2023-02-03T16:51:55.787Z,99148.19
2023-02-03T16:54:24.681Z,99141.63
2023-02-03T16:56:53.516Z,99150.06
2023-02-03T16:59:22.314Z,99165.13
2023-02-03T17:01:52.572Z,99170.31
2023-02-03T17:04:21.401Z,99179.56
2023-02-03T17:06:51.840Z,99187.13
2023-02-03T17:09:22.431Z,99207.44
2023-02-03T17:11:51.239Z,99193.19
2023-02-03T17:14:20.059Z,99204.28
2023-02-03T17:16:49.036Z,99211.06
2023-02-03T17:19:19.213Z,99218.66
2023-02-03T17:21:48.153Z,99240.66
2023-02-03T17:24:16.984Z,99257.44
2023-02-03T17:26:45.809Z,99264.19
2023-02-03T17:29:14.569Z,99262.34
2023-02-03T17:31:43.343Z,99262.31
2023-02-03T17:34:12.101Z,99245.44
2023-02-03T17:36:43.081Z,99246.16
2023-02-03T17:55:05.919Z,99205.69
2023-02-03T17:57:38.055Z,99188.84
2023-02-03T18:00:08.377Z,99193.88
2023-02-03T18:02:46.106Z,99190.56
2023-02-03T18:05:14.963Z,99179.59
2023-02-03T18:07:45.121Z,99166.94
2023-02-03T18:10:14.110Z,99177.78
2023-02-03T18:12:43.529Z,99201.31
2023-02-03T18:15:12.216Z,99200.44
2023-02-03T18:17:41.044Z,99191.94
2023-02-03T18:20:10.898Z,99197.00
2023-02-03T18:22:39.616Z,99202.97
2023-02-03T18:25:10.125Z,99209.72
2023-02-03T18:27:38.930Z,99222.22
2023-02-03T18:30:11.685Z,99220.47
2023-02-03T18:32:40.514Z,99212.13
2023-02-03T18:35:13.215Z,99212.19
2023-02-03T18:37:41.990Z,99207.09
2023-02-03T18:40:12.889Z,99212.97
2023-02-03T18:42:41.633Z,99213.78
2023-02-03T18:45:13.200Z,99206.19
2023-02-03T18:47:41.923Z,99202.78
2023-02-03T18:50:11.117Z,99191.78
2023-02-03T18:52:39.918Z,99193.41
2023-02-03T18:55:09.592Z,99202.72
2023-02-03T18:57:39.403Z,99202.69
2023-02-03T19:00:09.862Z,99201.81
2023-02-03T19:02:39.564Z,99213.66
2023-02-03T19:05:12.072Z,99212.78
2023-02-03T19:07:40.839Z,99218.66
2023-02-03T19:10:10.459Z,99217.84
2023-02-03T19:12:40.782Z,99212.78
2023-02-03T19:15:10.553Z,99209.44
2023-02-03T19:17:39.370Z,99212.03
2023-02-03T19:20:09.753Z,99212.03
2023-02-03T19:22:38.524Z,99198.53
2023-02-03T19:25:07.970Z,99206.97
2023-02-03T19:27:36.890Z,99208.69
2023-02-03T19:30:07.738Z,99218.81
2023-02-03T19:32:36.397Z,99218.81
2023-02-03T19:35:05.254Z,99220.53
2023-02-03T19:37:34.085Z,99228.13
2023-02-03T19:40:02.783Z,99223.06
2023-02-03T19:42:31.524Z,99220.53
2023-02-03T19:45:00.265Z,99224.78
2023-02-03T19:47:30.521Z,99219.03
2023-02-03T19:49:59.630Z,99222.41
2023-02-03T19:52:28.359Z,99195.53
2023-02-03T19:54:57.181Z,99214.06
2023-02-03T19:57:25.800Z,99214.06
2023-02-03T19:59:54.588Z,99216.63
2023-02-03T20:02:23.419Z,99219.19
2023-02-03T20:04:53.734Z,99219.28
2023-02-03T20:07:23.371Z,99221.88
2023-02-03T20:09:51.758Z,99221.88
2023-02-03T20:12:20.480Z,99232.84
2023-02-03T20:14:49.269Z,99226.91
2023-02-03T20:17:18.016Z,99224.41
2023-02-03T20:19:47.227Z,99239.53
2023-02-03T20:22:17.463Z,99232.78
2023-02-03T20:24:46.310Z,99238.72
2023-02-03T20:27:15.033Z,99246.41
2023-02-03T20:29:43.959Z,99246.41
2023-02-03T20:32:12.621Z,99259.00
2023-02-03T20:34:42.320Z,99256.56
2023-02-03T20:37:10.726Z,99258.25
2023-02-03T20:39:42.021Z,99260.84
2023-02-03T20:42:17.057Z,99264.28
2023-02-03T20:44:45.852Z,99271.00
2023-02-03T20:47:18.043Z,99272.69
2023-02-03T20:49:48.090Z,99268.53
2023-02-03T20:52:19.290Z,99255.00
2023-02-03T20:54:49.619Z,99267.63
2023-02-03T20:57:20.814Z,99261.69
2023-02-03T20:59:49.738Z,99254.06
2023-02-03T21:02:23.297Z,99247.34
2023-02-03T21:05:01.996Z,99244.03
2023-02-03T21:07:31.641Z,99246.47
2023-02-03T21:10:01.715Z,99254.78
2023-02-03T21:12:30.511Z,99248.81
2023-02-03T21:14:59.237Z,99245.44
2023-02-03T21:17:28.902Z,99249.72
2023-02-03T21:19:58.084Z,99251.59
2023-02-03T21:22:30.623Z,99248.28
2023-02-03T21:25:03.514Z,99255.84
2023-02-03T21:27:34.057Z,99258.47
2023-02-03T21:30:07.850Z,99254.25
2023-02-03T21:32:39.682Z,99263.59
2023-02-03T21:35:25.302Z,99271.38
2023-02-03T21:37:57.425Z,99274.59
2023-02-03T21:40:30.232Z,99260.97
2023-02-03T21:43:01.697Z,99265.31
2023-02-03T21:45:43.234Z,99273.59
2023-02-03T21:48:33.442Z,99266.66
2023-02-03T21:51:04.366Z,99269.88
2023-02-03T21:53:35.934Z,99260.53
2023-02-03T21:56:20.250Z,99253.00
2023-02-03T21:58:51.310Z,99246.25
2023-02-03T22:01:23.201Z,99267.94
2023-02-03T22:03:53.338Z,99266.97
2023-02-03T22:06:26.408Z,99261.75
2023-02-03T22:08:56.918Z,99253.94
2023-02-03T22:11:28.562Z,99268.28
2023-02-03T22:13:57.791Z,99275.69
2023-02-03T22:16:26.985Z,99266.31
2023-02-03T22:18:55.949Z,99257.88
2023-02-03T22:21:25.092Z,99259.53
2023-02-03T22:23:54.061Z,99263.06
2023-02-03T22:26:22.929Z,99255.59
2023-02-03T22:28:53.298Z,99260.56
2023-02-03T22:31:22.818Z,99259.59
2023-02-03T22:33:51.646Z,99263.84
2023-02-03T22:36:22.383Z,99264.72
2023-02-03T22:38:51.183Z,99241.03
2023-02-03T22:41:21.077Z,99255.44
2023-02-03T22:43:49.973Z,99247.00
2023-02-03T22:46:20.306Z,99256.28
2023-02-03T22:48:49.173Z,99242.03
2023-02-03T22:51:17.895Z,99246.84
2023-02-03T22:53:46.778Z,99244.38
2023-02-03T22:56:15.519Z,99243.63
2023-02-03T22:58:44.382Z,99242.81
2023-02-03T23:01:13.049Z,99234.44
2023-02-03T23:03:43.701Z,99232.03
2023-02-03T23:06:12.547Z,99228.72
2023-02-03T23:08:41.239Z,99227.94
2023-02-03T23:11:10.108Z,99228.81
2023-02-03T23:13:38.879Z,99216.44
2023-02-03T23:16:07.974Z,99221.66
2023-02-03T23:18:36.698Z,99228.44
2023-02-03T23:21:07.262Z,99221.06
2023-02-03T23:23:36.081Z,99215.34
2023-02-03T23:26:04.894Z,99215.47
2023-02-03T23:28:33.884Z,99208.03
2023-02-03T23:31:04.251Z,99216.59
2023-02-03T23:33:33.031Z,99221.66
2023-02-03T23:36:00.715Z,99216.59
2023-02-03T23:38:30.945Z,99216.63
2023-02-03T23:40:59.747Z,99225.13
2023-02-03T23:43:28.469Z,99221.75
2023-02-03T23:45:57.206Z,99222.63
2023-02-03T23:48:25.946Z,99216.75
2023-02-03T23:50:54.672Z,99216.75
2023-02-03T23:53:23.420Z,99215.03
2023-02-03T23:55:53.642Z,99211.66
2023-02-03T23:58:22.501Z,99215.09
